createdAt,value
2023-01-07T00:01:44.300Z,7.90
2023-01-07T00:04:14.480Z,7.90
2023-01-07T00:06:45.469Z,8.00
2023-01-07T00:09:16.431Z,8.00
2023-01-07T00:11:44.644Z,8.00
2023-01-07T00:14:14.021Z,7.90
2023-01-07T00:16:42.739Z,8.00
2023-01-07T00:19:13.585Z,8.00
2023-01-07T00:21:42.892Z,8.00
2023-01-07T00:24:12.225Z,7.90
2023-01-07T00:26:40.668Z,7.90
2023-01-07T00:29:09.367Z,7.90
2023-01-07T00:31:38.788Z,7.90
2023-01-07T00:34:09.303Z,7.90
2023-01-07T00:36:40.672Z,7.90
2023-01-07T00:39:13.413Z,7.90
2023-01-07T00:42:01.784Z,7.90
2023-01-07T00:44:29.767Z,7.90
2023-01-07T00:46:58.301Z,7.90
2023-01-07T00:49:26.399Z,7.90
2023-01-07T00:51:54.492Z,7.90
2023-01-07T00:54:24.544Z,7.90
2023-01-07T00:56:52.490Z,7.90
2023-01-07T00:59:20.318Z,7.90
2023-01-07T01:01:48.239Z,7.90
2023-01-07T01:04:16.322Z,7.90
2023-01-07T01:06:44.235Z,7.90
2023-01-07T01:09:12.288Z,8.00
2023-01-07T01:11:41.857Z,8.00
2023-01-07T01:14:11.427Z,8.00
2023-01-07T01:16:39.397Z,8.00
2023-01-07T01:19:07.285Z,8.00
2023-01-07T01:21:35.149Z,8.00
2023-01-07T01:24:03.004Z,8.00
2023-01-07T01:26:30.844Z,8.00
2023-01-07T01:29:00.074Z,8.00
2023-01-07T01:31:28.098Z,8.00
2023-01-07T01:33:56.376Z,8.00
2023-01-07T01:36:24.784Z,8.00
2023-01-07T01:38:52.619Z,8.00
2023-01-07T01:41:20.538Z,8.00
2023-01-07T01:43:48.421Z,8.00
2023-01-07T01:46:21.879Z,8.00
2023-01-07T01:48:53.263Z,8.00
2023-01-07T01:51:25.350Z,8.00
2023-01-07T01:53:54.491Z,8.00
2023-01-07T01:56:26.846Z,8.00
2023-01-07T01:58:58.299Z,8.00
2023-01-07T02:01:28.115Z,8.00
2023-01-07T02:03:57.760Z,8.00
2023-01-07T02:06:30.080Z,8.00
2023-01-07T02:08:58.002Z,7.90
2023-01-07T02:11:37.538Z,7.90
2023-01-07T02:14:27.690Z,7.90
2023-01-07T02:17:05.289Z,8.00
2023-01-07T02:20:03.030Z,8.00
2023-01-07T02:22:51.003Z,7.90
2023-01-07T02:25:44.229Z,7.90
2023-01-07T02:28:31.739Z,7.90
2023-01-07T02:31:37.005Z,7.90
2023-01-07T02:34:14.375Z,7.90
2023-01-07T02:36:52.093Z,7.90
2023-01-07T02:39:35.914Z,7.90
2023-01-07T02:42:14.138Z,7.90
2023-01-07T02:44:46.471Z,8.00
2023-01-07T02:47:19.282Z,7.90
2023-01-07T02:49:49.446Z,7.90
2023-01-07T02:52:20.087Z,7.90
2023-01-07T02:54:51.857Z,7.90
2023-01-07T02:57:36.892Z,7.90
2023-01-07T03:00:15.781Z,7.90
2023-01-07T03:03:04.251Z,7.90
2023-01-07T03:05:52.171Z,7.90
2023-01-07T03:08:38.074Z,7.90
2023-01-07T03:11:08.867Z,7.90
2023-01-07T03:13:40.195Z,7.90
2023-01-07T03:16:13.220Z,7.90
2023-01-07T03:18:47.101Z,7.90
2023-01-07T03:21:19.935Z,7.90
2023-01-07T03:23:52.852Z,7.90
2023-01-07T03:26:33.139Z,7.90
2023-01-07T03:29:02.769Z,7.90
2023-01-07T03:31:31.409Z,7.90
2023-01-07T03:34:03.927Z,7.80
2023-01-07T03:36:37.975Z,7.80
2023-01-07T03:39:08.149Z,7.90
2023-01-07T03:41:53.545Z,7.90
2023-01-07T03:44:21.405Z,7.90
2023-01-07T03:46:49.518Z,7.90
2023-01-07T03:49:17.589Z,7.90
2023-01-07T03:51:49.411Z,7.90
2023-01-07T03:54:17.668Z,7.90
2023-01-07T03:56:45.557Z,7.90
2023-01-07T03:59:13.393Z,7.90
2023-01-07T04:01:41.501Z,7.90
2023-01-07T04:04:09.825Z,7.90
2023-01-07T04:06:37.777Z,7.80
2023-01-07T04:09:06.936Z,7.90
2023-01-07T04:11:34.840Z,7.80
2023-01-07T04:14:02.727Z,7.80
2023-01-07T04:16:30.843Z,7.80
2023-01-07T04:18:58.712Z,7.80
2023-01-07T04:21:26.563Z,7.80
2023-01-07T04:23:54.589Z,7.80
2023-01-07T04:26:23.987Z,7.80
2023-01-07T04:28:51.853Z,7.80
2023-01-07T04:31:19.682Z,7.90
2023-01-07T04:33:47.519Z,7.90
2023-01-07T04:36:15.397Z,7.80
2023-01-07T04:38:43.249Z,7.90
2023-01-07T04:41:11.128Z,7.90
2023-01-07T04:43:40.387Z,7.80
2023-01-07T04:46:08.332Z,7.80
2023-01-07T04:48:36.196Z,7.80
2023-01-07T04:51:04.149Z,7.80
2023-01-07T04:53:32.036Z,7.80
2023-01-07T04:56:00.052Z,7.80
2023-01-07T04:58:28.006Z,7.80
2023-01-07T05:01:00.174Z,7.80
2023-01-07T05:03:28.126Z,7.80
2023-01-07T05:05:56.135Z,7.80
2023-01-07T05:08:24.124Z,7.80
2023-01-07T05:10:52.211Z,7.80
2023-01-07T05:13:22.295Z,7.80
2023-01-07T05:15:50.227Z,7.70
2023-01-07T05:18:19.532Z,7.70
2023-01-07T05:20:48.218Z,7.70
2023-01-07T05:23:16.158Z,7.70
2023-01-07T05:25:44.083Z,7.70
2023-01-07T05:28:12.889Z,7.70
2023-01-07T05:30:40.856Z,7.70
2023-01-07T05:33:09.290Z,7.60
2023-01-07T05:35:38.734Z,7.60
2023-01-07T05:38:06.660Z,7.60
2023-01-07T05:40:34.655Z,7.60
2023-01-07T05:43:02.516Z,7.60
2023-01-07T05:45:30.445Z,7.60
2023-01-07T05:47:58.375Z,7.60
2023-01-07T05:50:26.366Z,7.60
2023-01-07T05:52:55.613Z,7.60
2023-01-07T05:55:23.534Z,7.60
2023-01-07T05:57:51.443Z,7.60
2023-01-07T06:00:19.669Z,7.60
2023-01-07T06:02:47.608Z,7.60
2023-01-07T06:05:15.539Z,7.60
2023-01-07T06:07:43.424Z,7.60
2023-01-07T06:10:12.776Z,7.60
2023-01-07T06:12:40.712Z,7.60
2023-01-07T06:15:09.498Z,7.60
2023-01-07T06:17:37.489Z,7.60
2023-01-07T06:20:07.017Z,7.60
2023-01-07T06:22:34.943Z,7.60
2023-01-07T06:25:02.848Z,7.60
2023-01-07T06:27:32.070Z,7.60
2023-01-07T06:30:00.045Z,7.60
2023-01-07T06:32:28.015Z,7.60
2023-01-07T06:34:55.888Z,7.60
2023-01-07T06:37:23.807Z,7.60
2023-01-07T06:39:51.988Z,7.60
2023-01-07T06:42:19.935Z,7.60
2023-01-07T06:44:49.127Z,7.60
2023-01-07T06:47:17.185Z,7.60
2023-01-07T06:49:45.060Z,7.60
2023-01-07T06:52:12.971Z,7.60
2023-01-07T06:54:40.955Z,7.60
2023-01-07T06:57:08.848Z,7.60
2023-01-07T06:59:36.783Z,7.60
2023-01-07T07:02:06.221Z,7.60
2023-01-07T07:04:34.106Z,7.60
2023-01-07T07:07:01.970Z,7.60
2023-01-07T07:09:29.880Z,7.60
2023-01-07T07:11:57.790Z,7.60
2023-01-07T07:14:25.711Z,7.60
2023-01-07T07:16:53.659Z,7.50
2023-01-07T07:19:22.929Z,7.60
2023-01-07T07:21:50.868Z,7.60
2023-01-07T07:24:18.745Z,7.60
2023-01-07T07:26:46.695Z,7.60
2023-01-07T07:29:14.606Z,7.50
2023-01-07T07:31:42.570Z,7.60
2023-01-07T07:34:11.076Z,7.50
2023-01-07T07:36:40.374Z,7.50
2023-01-07T07:39:08.410Z,7.50
2023-01-07T07:41:36.341Z,7.50
2023-01-07T07:44:04.307Z,7.50
2023-01-07T07:46:32.239Z,7.50
2023-01-07T07:49:00.212Z,7.50
2023-01-07T07:51:28.257Z,7.50
2023-01-07T07:53:57.501Z,7.50
2023-01-07T07:56:25.671Z,7.50
2023-01-07T07:58:53.566Z,7.50
2023-01-07T08:01:21.523Z,7.50
2023-01-07T08:03:49.618Z,7.50
2023-01-07T08:06:17.509Z,7.50
2023-01-07T08:08:45.385Z,7.50
2023-01-07T08:11:14.606Z,7.50
2023-01-07T08:13:42.479Z,7.50
2023-01-07T08:16:10.489Z,7.40
2023-01-07T08:18:39.981Z,7.50
2023-01-07T08:21:07.959Z,7.50
2023-01-07T08:23:35.914Z,7.50
2023-01-07T08:26:05.025Z,7.50
2023-01-07T08:28:35.027Z,7.40
2023-01-07T08:31:03.642Z,7.40
2023-01-07T08:33:34.165Z,7.40
2023-01-07T08:36:03.609Z,7.40
2023-01-07T08:38:35.072Z,7.50
2023-01-07T08:41:03.153Z,7.50
2023-01-07T08:43:31.291Z,7.50
2023-01-07T08:46:00.590Z,7.60
2023-01-07T08:48:28.691Z,7.60
2023-01-07T08:50:56.551Z,7.60
2023-01-07T08:53:24.776Z,7.60
2023-01-07T08:55:52.633Z,7.70
2023-01-07T08:58:20.631Z,7.70
2023-01-07T09:00:48.550Z,7.70
2023-01-07T09:03:17.887Z,7.80
2023-01-07T09:05:47.399Z,7.80
2023-01-07T09:08:15.374Z,7.80
2023-01-07T09:10:43.297Z,7.80
2023-01-07T09:13:11.258Z,7.80
2023-01-07T09:15:39.167Z,7.80
2023-01-07T09:18:07.218Z,7.80
2023-01-07T09:20:36.541Z,7.90
2023-01-07T09:23:04.444Z,7.90
2023-01-07T09:25:32.301Z,7.90
2023-01-07T09:28:00.193Z,7.90
2023-01-07T09:30:28.074Z,7.90
2023-01-07T09:32:55.985Z,8.00
2023-01-07T09:35:23.995Z,8.00
2023-01-07T09:37:53.247Z,8.00
2023-01-07T09:40:26.315Z,8.00
2023-01-07T09:43:03.206Z,8.00
2023-01-07T09:45:35.708Z,8.00
2023-01-07T09:48:11.058Z,8.00
2023-01-07T09:50:49.309Z,8.10
2023-01-07T09:53:23.741Z,8.10
2023-01-07T09:56:11.176Z,8.10
2023-01-07T09:58:42.737Z,8.10
2023-01-07T10:01:21.794Z,8.20
2023-01-07T10:03:59.204Z,8.20
2023-01-07T10:06:43.594Z,8.20
2023-01-07T10:09:22.160Z,8.20
2023-01-07T10:12:00.351Z,8.20
2023-01-07T10:14:52.348Z,8.20
2023-01-07T10:17:30.116Z,8.20
2023-01-07T10:20:02.746Z,8.30
2023-01-07T10:22:33.867Z,8.20
2023-01-07T10:25:05.978Z,8.30
2023-01-07T10:27:36.357Z,8.30
2023-01-07T10:30:06.894Z,8.30
2023-01-07T10:32:36.593Z,8.30
2023-01-07T10:35:05.539Z,8.30
2023-01-07T10:37:35.472Z,8.30
2023-01-07T10:40:26.212Z,8.30
2023-01-07T10:43:02.145Z,8.40
2023-01-07T10:45:52.956Z,8.40
2023-01-07T10:48:41.787Z,8.40
2023-01-07T10:51:18.958Z,8.40
2023-01-07T10:53:57.978Z,8.40
2023-01-07T10:56:31.441Z,8.40
2023-01-07T10:58:59.903Z,8.40
2023-01-07T11:01:30.449Z,8.40
2023-01-07T11:03:59.931Z,8.40
2023-01-07T11:06:38.305Z,8.40
2023-01-07T11:09:09.941Z,8.50
2023-01-07T11:11:41.022Z,8.50
2023-01-07T11:14:14.984Z,8.60
2023-01-07T11:16:47.320Z,8.50
2023-01-07T11:19:16.553Z,8.50
2023-01-07T11:21:46.324Z,8.60
2023-01-07T11:24:31.047Z,8.60
2023-01-07T11:27:07.717Z,8.60
2023-01-07T11:29:39.989Z,8.60
2023-01-07T11:32:20.332Z,8.60
2023-01-07T11:34:56.505Z,8.70
2023-01-07T11:37:33.695Z,8.70
2023-01-07T11:40:04.264Z,8.70
2023-01-07T11:42:42.299Z,8.70
2023-01-07T11:45:15.262Z,8.70
2023-01-07T11:47:48.771Z,8.70
2023-01-07T11:50:29.843Z,8.70
2023-01-07T11:53:03.053Z,8.70
2023-01-07T11:55:31.578Z,8.80
2023-01-07T11:58:28.361Z,8.80
2023-01-07T12:01:04.853Z,8.80
2023-01-07T12:03:32.811Z,8.80
2023-01-07T12:06:08.407Z,8.80
2023-01-07T12:08:36.868Z,8.80
2023-01-07T12:11:11.054Z,8.90
2023-01-07T12:13:42.864Z,8.90
2023-01-07T12:16:11.753Z,8.90
2023-01-07T12:18:55.678Z,9.00
2023-01-07T12:21:35.061Z,8.90
2023-01-07T12:24:17.307Z,8.90
2023-01-07T12:26:52.140Z,8.90
2023-01-07T12:29:36.183Z,8.80
2023-01-07T12:32:17.860Z,8.80
2023-01-07T12:34:52.569Z,8.80
2023-01-07T12:37:29.911Z,8.80
2023-01-07T12:40:07.657Z,8.80
2023-01-07T12:42:38.688Z,8.80
2023-01-07T12:45:18.140Z,8.80
2023-01-07T12:47:51.604Z,8.70
2023-01-07T12:50:25.481Z,8.80
2023-01-07T12:52:58.795Z,8.70
2023-01-07T12:55:31.836Z,8.70
2023-01-07T12:58:05.863Z,8.70
2023-01-07T13:00:41.564Z,8.70
2023-01-07T13:03:20.393Z,8.70
2023-01-07T13:05:53.298Z,8.80
2023-01-07T13:08:29.408Z,8.70
2023-01-07T13:11:03.469Z,8.70
2023-01-07T13:13:37.701Z,8.60
2023-01-07T13:16:10.307Z,8.70
2023-01-07T13:18:38.459Z,8.70
2023-01-07T13:21:09.968Z,8.70
2023-01-07T13:23:57.293Z,8.60
2023-01-07T13:26:34.435Z,8.60
2023-01-07T13:29:24.714Z,8.60
2023-01-07T13:32:28.713Z,8.60
2023-01-07T13:35:13.894Z,8.70
2023-01-07T13:38:01.212Z,8.70
2023-01-07T13:40:44.763Z,8.70
2023-01-07T13:43:27.496Z,8.70
2023-01-07T13:46:00.110Z,8.80
2023-01-07T13:48:30.373Z,8.70
2023-01-07T13:51:00.768Z,8.70
2023-01-07T13:53:46.931Z,8.60
2023-01-07T13:56:36.043Z,8.60
2023-01-07T13:59:04.371Z,8.60
2023-01-07T14:01:33.943Z,8.60
2023-01-07T14:04:47.028Z,8.60
2023-01-07T14:07:15.063Z,8.70
2023-01-07T14:09:43.602Z,8.60
2023-01-07T14:12:56.099Z,8.60
2023-01-07T14:15:48.692Z,8.60
2023-01-07T14:18:52.979Z,8.60
2023-01-07T14:21:42.847Z,8.60
2023-01-07T14:24:41.622Z,8.60
2023-01-07T14:27:27.400Z,8.60
2023-01-07T14:30:02.925Z,8.60
2023-01-07T14:32:39.518Z,8.50
2023-01-07T14:35:21.427Z,8.50
2023-01-07T14:37:50.662Z,8.50
2023-01-07T14:41:00.346Z,8.50
2023-01-07T14:44:00.116Z,8.50
2023-01-07T14:46:48.248Z,8.50
2023-01-07T14:49:44.901Z,8.40
2023-01-07T14:52:25.413Z,8.40
2023-01-07T14:55:24.828Z,8.40
2023-01-07T14:58:03.534Z,8.40
2023-01-07T15:01:04.291Z,8.40
2023-01-07T15:03:55.874Z,8.40
2023-01-07T15:06:29.888Z,8.40
2023-01-07T15:09:22.378Z,8.40
2023-01-07T15:12:11.432Z,8.40
2023-01-07T15:15:02.364Z,8.40
2023-01-07T15:17:30.371Z,8.40
2023-01-07T15:19:58.786Z,8.40
2023-01-07T15:22:59.900Z,8.40
2023-01-07T15:25:46.515Z,8.40
2023-01-07T15:28:22.411Z,8.30
2023-01-07T15:30:58.325Z,8.30
2023-01-07T15:33:41.268Z,8.30
2023-01-07T15:36:13.004Z,8.30
2023-01-07T15:38:45.870Z,8.30
2023-01-07T15:41:27.003Z,8.20
2023-01-07T15:43:57.289Z,8.20
2023-01-07T15:46:27.997Z,8.20
2023-01-07T15:49:16.756Z,8.20
2023-01-07T15:51:47.953Z,8.20
2023-01-07T15:54:34.841Z,8.20
2023-01-07T15:57:09.421Z,8.20
2023-01-07T15:59:43.686Z,8.20
2023-01-07T16:02:24.296Z,8.10
2023-01-07T16:04:53.826Z,8.10
2023-01-07T16:07:28.519Z,8.10
2023-01-07T16:09:57.844Z,8.10
2023-01-07T16:12:30.749Z,8.10
2023-01-07T16:15:00.294Z,8.10
2023-01-07T16:17:28.651Z,8.00
2023-01-07T16:20:19.977Z,8.00
2023-01-07T16:22:47.984Z,8.00
2023-01-07T16:25:23.067Z,8.00
2023-01-07T16:27:51.574Z,7.90
2023-01-07T16:30:21.352Z,7.90
2023-01-07T16:32:49.522Z,7.90
2023-01-07T16:35:21.090Z,7.80
2023-01-07T16:37:50.073Z,7.90
2023-01-07T16:40:23.484Z,7.90
2023-01-07T16:42:52.522Z,7.90
2023-01-07T16:45:27.671Z,7.90
2023-01-07T16:48:19.752Z,7.90
2023-01-07T16:50:49.773Z,7.90
2023-01-07T16:53:27.109Z,7.90
2023-01-07T16:56:07.857Z,7.80
2023-01-07T16:58:42.847Z,7.80
2023-01-07T17:01:13.572Z,7.70
2023-01-07T17:03:49.333Z,7.70
2023-01-07T17:06:25.506Z,7.70
2023-01-07T17:08:56.593Z,7.60
2023-01-07T17:11:29.408Z,7.60
2023-01-07T17:13:57.281Z,7.50
2023-01-07T17:16:32.030Z,7.30
2023-01-07T17:19:15.664Z,7.20
2023-01-07T17:21:44.763Z,7.00
2023-01-07T17:24:37.765Z,6.90
2023-01-07T17:27:06.411Z,6.80
2023-01-07T17:29:39.306Z,6.70
2023-01-07T17:32:08.860Z,6.70
2023-01-07T17:34:37.015Z,6.60
2023-01-07T17:37:05.010Z,6.50
2023-01-07T17:39:32.901Z,6.40
2023-01-07T17:42:18.503Z,6.20
2023-01-07T17:44:48.460Z,6.10
2023-01-07T17:47:22.217Z,5.90
2023-01-07T17:49:50.082Z,5.90
2023-01-07T17:52:17.975Z,5.80
2023-01-07T17:54:46.044Z,5.70
2023-01-07T17:57:13.995Z,5.60
2023-01-07T17:59:47.236Z,5.60
2023-01-07T18:02:19.841Z,5.60
2023-01-07T18:04:47.775Z,5.50
2023-01-07T18:07:16.604Z,5.30
2023-01-07T18:09:44.563Z,5.30
2023-01-07T18:12:31.504Z,5.20
2023-01-07T18:14:59.934Z,5.10
2023-01-07T18:17:29.696Z,4.90
2023-01-07T18:19:57.571Z,4.80
2023-01-07T18:22:26.171Z,4.70
2023-01-07T18:24:54.071Z,4.60
2023-01-07T18:27:23.010Z,4.60
2023-01-07T18:29:50.908Z,4.60
2023-01-07T18:32:18.813Z,4.60
2023-01-07T18:34:48.026Z,4.60
2023-01-07T18:37:17.773Z,4.50
2023-01-07T18:39:45.673Z,4.30
2023-01-07T18:42:13.819Z,4.20
2023-01-07T18:44:41.746Z,4.20
2023-01-07T18:47:09.639Z,4.20
2023-01-07T18:49:37.571Z,4.10
2023-01-07T18:52:06.820Z,4.10
2023-01-07T18:54:34.730Z,4.10
2023-01-07T18:57:02.614Z,4.00
2023-01-07T18:59:30.555Z,4.00
2023-01-07T19:02:00.421Z,3.90
2023-01-07T19:04:28.606Z,3.90
2023-01-07T19:06:56.652Z,4.00
2023-01-07T19:09:25.863Z,4.00
2023-01-07T19:11:53.751Z,4.10
2023-01-07T19:14:22.568Z,4.00
2023-01-07T19:16:50.777Z,4.00
2023-01-07T19:19:18.789Z,4.00
2023-01-07T19:21:48.082Z,4.00
2023-01-07T19:24:16.083Z,4.00
2023-01-07T19:26:46.863Z,4.00
2023-01-07T19:29:15.057Z,3.90
2023-01-07T19:31:45.542Z,3.70
2023-01-07T19:34:13.713Z,3.50
2023-01-07T19:36:46.608Z,3.50
2023-01-07T19:39:16.311Z,3.50
2023-01-07T19:41:45.832Z,3.30
2023-01-07T19:44:14.106Z,3.30
2023-01-07T19:46:42.671Z,3.20
2023-01-07T19:49:11.720Z,3.20
2023-01-07T19:51:41.222Z,3.20
2023-01-07T19:54:12.544Z,3.20
2023-01-07T19:56:41.135Z,3.20
2023-01-07T19:59:11.409Z,3.20
2023-01-07T20:01:39.789Z,3.20
2023-01-07T20:04:09.006Z,3.10
2023-01-07T20:06:39.739Z,3.10
2023-01-07T20:09:10.762Z,3.20
2023-01-07T20:11:39.416Z,3.20
2023-01-07T20:14:08.750Z,3.20
2023-01-07T20:16:39.633Z,3.20
2023-01-07T20:19:08.189Z,3.20
2023-01-07T20:21:36.199Z,3.20
2023-01-07T20:24:06.191Z,3.20
2023-01-07T20:26:35.142Z,3.00
2023-01-07T20:29:03.422Z,2.90
2023-01-07T20:31:32.055Z,2.80
2023-01-07T20:34:01.415Z,2.70
2023-01-07T20:36:30.482Z,2.60
2023-01-07T20:39:03.409Z,2.60
2023-01-07T20:41:32.374Z,2.50
2023-01-07T20:44:01.964Z,2.40
2023-01-07T20:46:31.413Z,2.50
2023-01-07T20:49:00.835Z,2.60
2023-01-07T20:51:29.116Z,2.60
2023-01-07T20:53:57.155Z,2.70
2023-01-07T20:56:26.240Z,2.80
2023-01-07T20:58:57.268Z,2.80
2023-01-07T21:01:25.442Z,2.70
2023-01-07T21:03:53.480Z,2.60
2023-01-07T21:06:22.813Z,2.50
2023-01-07T21:08:51.304Z,2.50
2023-01-07T21:11:21.360Z,2.50
2023-01-07T21:13:50.428Z,2.50
2023-01-07T21:16:18.825Z,2.50
2023-01-07T21:18:47.100Z,2.50
2023-01-07T21:21:16.864Z,2.50
2023-01-07T21:23:47.048Z,2.50
2023-01-07T21:26:15.350Z,2.40
2023-01-07T21:28:44.745Z,2.40
2023-01-07T21:31:16.236Z,2.40
2023-01-07T21:33:44.329Z,2.40
2023-01-07T21:36:14.586Z,2.40
2023-01-07T21:38:43.256Z,2.60
2023-01-07T21:41:14.370Z,2.60
2023-01-07T21:43:43.128Z,2.60
2023-01-07T21:46:11.521Z,2.50
2023-01-07T21:48:41.260Z,2.40
2023-01-07T21:51:12.202Z,2.40
2023-01-07T21:53:40.170Z,2.40
2023-01-07T21:56:09.089Z,2.50
2023-01-07T21:58:38.876Z,2.40
2023-01-07T22:01:07.698Z,2.30
2023-01-07T22:03:37.060Z,2.30
2023-01-07T22:06:07.586Z,2.20
2023-01-07T22:08:36.475Z,2.20
2023-01-07T22:11:04.424Z,2.20
2023-01-07T22:13:32.293Z,2.30
2023-01-07T22:16:01.556Z,2.30
2023-01-07T22:18:29.454Z,2.40
2023-01-07T22:20:57.366Z,2.40
2023-01-07T22:23:25.313Z,2.50
2023-01-07T22:25:53.237Z,2.60
2023-01-07T22:28:23.978Z,2.60
2023-01-07T22:30:54.917Z,2.40
2023-01-07T22:33:24.136Z,2.30
2023-01-07T22:35:52.457Z,2.30
2023-01-07T22:38:23.376Z,2.30
2023-01-07T22:40:51.744Z,2.20
2023-01-07T22:43:21.525Z,2.20
2023-01-07T22:45:53.245Z,2.30
2023-01-07T22:48:24.066Z,2.30
2023-01-07T22:50:56.188Z,2.30
2023-01-07T22:53:24.572Z,2.30
2023-01-07T22:55:52.508Z,2.40
2023-01-07T22:58:20.444Z,2.40
2023-01-07T23:01:07.965Z,2.40
2023-01-07T23:03:36.021Z,2.40
2023-01-07T23:06:06.474Z,2.50
2023-01-07T23:08:34.453Z,2.60
2023-01-07T23:11:02.461Z,2.50
2023-01-07T23:13:30.538Z,2.50
2023-01-07T23:16:01.222Z,2.50
2023-01-07T23:18:29.216Z,2.50
2023-01-07T23:20:57.434Z,2.50
2023-01-07T23:23:26.652Z,2.50
2023-01-07T23:25:54.640Z,2.40
2023-01-07T23:28:22.577Z,2.40
2023-01-07T23:30:50.513Z,2.50
2023-01-07T23:33:18.445Z,2.50
2023-01-07T23:35:46.331Z,2.60
2023-01-07T23:38:14.198Z,2.60
2023-01-07T23:40:43.419Z,2.60
2023-01-07T23:43:11.779Z,2.70
2023-01-07T23:45:39.751Z,2.70
2023-01-07T23:48:07.730Z,2.70
2023-01-07T23:50:35.618Z,2.70
2023-01-07T23:53:03.523Z,2.70
2023-01-07T23:55:31.471Z,2.70
2023-01-07T23:58:00.681Z,2.70
